Time;durP1;ratioP1;P1;durP2;ratioP2;P2;SDS_P1;SDS_P2;PMS_P1;PMS_P2;Temp;Humidity;BMP_temperature;BMP_pressure;BME280_temperature;BME280_humidity;BME280_pressure;Samples;Min_cycle;Max_cycle;Signal;HPM_P1;HPM_P2
2022/05/15 00:01:02;;;;;;;6.30;2.72;;;20.90;54.00;;;;;;4476707;32;20207;-82
2022/05/15 00:03:28;;;;;;;7.03;2.50;;;20.90;54.00;;;;;;4476352;32;20239;-82
2022/05/15 00:06:00;;;;;;;8.10;2.50;;;20.80;53.90;;;;;;4476086;32;20053;-82
2022/05/15 00:08:29;;;;;;;8.65;2.95;;;20.80;53.90;;;;;;4476394;32;20108;-80
2022/05/15 00:10:56;;;;;;;8.25;2.72;;;20.80;53.90;;;;;;4479181;32;20081;-82
2022/05/15 00:13:23;;;;;;;7.68;2.38;;;20.80;53.80;;;;;;4479360;31;20074;-82
2022/05/15 00:15:50;;;;;;;5.75;2.38;;;20.80;53.80;;;;;;4479431;31;20204;-82
2022/05/15 00:18:18;;;;;;;9.18;2.53;;;20.80;53.80;;;;;;4479579;31;20148;-82
2022/05/15 00:20:44;;;;;;;7.05;2.38;;;20.80;53.80;;;;;;4479341;31;20420;-82
2022/05/15 00:23:11;;;;;;;7.22;2.47;;;20.80;53.80;;;;;;4479312;32;20061;-81
2022/05/15 00:25:39;;;;;;;6.28;2.47;;;20.80;53.80;;;;;;4479045;31;20514;-83
2022/05/15 00:28:05;;;;;;;7.38;2.78;;;20.80;53.80;;;;;;4478997;31;20080;-82
2022/05/15 00:30:32;;;;;;;7.03;2.63;;;20.80;53.80;;;;;;4479229;31;20306;-82
2022/05/15 00:32:58;;;;;;;7.55;2.45;;;20.80;53.80;;;;;;4479132;31;20493;-82
2022/05/15 00:35:25;;;;;;;6.63;2.35;;;20.70;53.70;;;;;;4478905;32;20207;-82
2022/05/15 00:37:51;;;;;;;7.63;2.30;;;20.70;53.70;;;;;;4479408;31;20074;-80
2022/05/15 00:40:18;;;;;;;8.43;2.47;;;20.70;53.70;;;;;;4479028;31;20112;-82
2022/05/15 00:42:45;;;;;;;4.82;2.20;;;20.70;54.60;;;;;;4478724;31;20085;-82
2022/05/15 00:45:12;;;;;;;6.60;2.25;;;20.70;53.70;;;;;;4479368;32;20100;-82
2022/05/15 00:47:38;;;;;;;6.05;2.42;;;20.70;53.70;;;;;;4478982;31;20147;-82
2022/05/15 00:50:12;;;;;;;6.43;2.38;;;20.70;53.70;;;;;;4479288;31;20069;-82
2022/05/15 00:52:40;;;;;;;;;;;20.70;53.60;;;;;;4479720;31;20077;-82
2022/05/15 00:55:43;;;;;;;5.40;2.17;;;20.70;53.50;;;;;;4478952;31;20442;-82
2022/05/15 00:58:31;;;;;;;6.73;2.40;;;20.70;53.70;;;;;;4461346;32;20078;-82
2022/05/15 01:00:57;;;;;;;6.40;2.50;;;20.70;53.60;;;;;;4477652;31;20115;-82
2022/05/15 01:03:23;;;;;;;4.45;2.33;;;20.60;53.60;;;;;;4479020;31;20379;-82
2022/05/15 01:05:56;;;;;;;5.97;2.17;;;20.60;53.60;;;;;;4479011;31;20391;-82
2022/05/15 01:08:23;;;;;;;4.93;2.30;;;20.60;53.60;;;;;;4478735;31;20135;-82
2022/05/15 01:10:53;;;;;;;5.63;2.33;;;20.60;53.60;;;;;;4478618;32;20093;-82
2022/05/15 01:13:21;;;;;;;4.47;2.38;;;20.60;53.50;;;;;;4478369;31;20085;-82
2022/05/15 01:15:48;;;;;;;3.67;2.15;;;20.60;53.50;;;;;;4478808;31;20096;-82
2022/05/15 01:18:21;;;;;;;4.35;2.10;;;20.60;53.50;;;;;;4478248;32;20091;-82
2022/05/15 01:20:47;;;;;;;6.07;2.35;;;20.60;53.50;;;;;;4477691;32;20151;-83
2022/05/15 01:23:13;;;;;;;7.55;2.90;;;20.60;53.70;;;;;;4478659;31;20085;-82
2022/05/15 01:25:39;;;;;;;4.07;1.83;;;20.60;53.50;;;;;;4478262;31;20081;-83
2022/05/15 01:28:15;;;;;;;6.05;2.13;;;20.60;53.50;;;;;;4478582;32;20065;-82
2022/05/15 01:30:43;;;;;;;6.53;2.40;;;20.60;53.60;;;;;;4478560;31;20215;-83
2022/05/15 01:33:09;;;;;;;4.03;2.20;;;20.60;53.60;;;;;;4477205;32;20195;-82
2022/05/15 01:35:36;;;;;;;6.35;2.30;;;20.50;53.50;;;;;;4477159;32;20383;-82
2022/05/15 01:38:03;;;;;;;4.20;2.10;;;20.60;53.60;;;;;;4478462;32;20089;-82
2022/05/15 01:40:29;;;;;;;5.82;2.20;;;20.50;53.50;;;;;;4478437;31;20088;-82
2022/05/15 01:42:55;;;;;;;6.53;1.90;;;20.50;53.50;;;;;;4478074;32;20178;-83
2022/05/15 01:45:21;;;;;;;4.45;2.08;;;20.50;53.50;;;;;;4477946;31;20175;-82
2022/05/15 01:47:49;;;;;;;4.28;2.10;;;20.50;53.50;;;;;;4478318;31;20096;-83
2022/05/15 01:50:15;;;;;;;4.95;2.05;;;20.50;53.50;;;;;;4478125;31;20089;-82
2022/05/15 01:52:43;;;;;;;4.72;1.90;;;20.50;53.50;;;;;;4477896;32;20092;-83
2022/05/15 01:55:09;;;;;;;3.67;1.67;;;20.50;53.50;;;;;;4478047;31;20171;-82
2022/05/15 01:57:35;;;;;;;4.50;1.63;;;20.50;53.50;;;;;;4477979;31;20206;-82
2022/05/15 02:00:03;;;;;;;5.30;2.15;;;20.50;53.50;;;;;;4478028;31;20219;-82
2022/05/15 02:02:30;;;;;;;4.22;1.77;;;20.50;53.60;;;;;;4477882;31;20084;-82
2022/05/15 02:04:56;;;;;;;3.53;1.77;;;20.50;53.50;;;;;;4477964;31;20300;-82
2022/05/15 02:07:21;;;;;;;5.22;1.77;;;20.50;53.50;;;;;;4477998;31;20124;-82
2022/05/15 02:09:47;;;;;;;4.35;1.75;;;20.50;53.50;;;;;;4478076;31;20081;-82
2022/05/15 02:12:13;;;;;;;5.13;1.77;;;20.50;53.50;;;;;;4476834;32;20077;-82
2022/05/15 02:14:39;;;;;;;3.67;2.00;;;20.50;53.50;;;;;;4477659;31;20070;-83
2022/05/15 02:17:05;;;;;;;4.85;2.00;;;20.40;53.50;;;;;;4477643;32;20073;-82
2022/05/15 02:19:30;;;;;;;4.57;1.98;;;20.40;53.50;;;;;;4477607;31;20426;-83
2022/05/15 02:21:56;;;;;;;4.03;1.73;;;20.40;53.50;;;;;;4476218;32;20527;-83
2022/05/15 02:24:23;;;;;;;6.40;2.03;;;20.40;53.50;;;;;;4477500;32;20144;-83
2022/05/15 02:26:49;;;;;;;3.42;1.90;;;20.40;53.50;;;;;;4476473;32;20093;-83
2022/05/15 02:29:15;;;;;;;4.13;1.65;;;20.40;53.50;;;;;;4477716;32;20076;-82
2022/05/15 02:31:41;;;;;;;3.58;1.83;;;20.40;53.50;;;;;;4477726;31;20277;-83
2022/05/15 02:34:07;;;;;;;3.75;1.70;;;20.40;53.50;;;;;;4476597;32;20487;-83
2022/05/15 02:36:33;;;;;;;3.72;1.98;;;20.40;53.50;;;;;;4477392;32;20415;-83
2022/05/15 02:38:59;;;;;;;4.30;2.00;;;20.40;53.50;;;;;;4477301;31;20151;-83
2022/05/15 02:41:25;;;;;;;3.58;1.77;;;20.40;53.50;;;;;;4477472;31;20050;-82
2022/05/15 02:43:51;;;;;;;4.88;1.75;;;20.40;53.50;;;;;;4476772;31;20517;-82
2022/05/15 02:46:17;;;;;;;5.15;1.70;;;20.40;53.50;;;;;;4477208;31;20162;-82
2022/05/15 02:51:27;;;;;;;4.57;1.98;;;20.40;53.50;;;;;;4477484;32;20093;-83
2022/05/15 02:53:53;;;;;;;3.58;1.95;;;20.30;53.40;;;;;;4477080;32;20066;-82
2022/05/15 02:56:23;;;;;;;3.38;1.50;;;20.30;53.40;;;;;;4477327;32;20207;-82
2022/05/15 02:58:49;;;;;;;4.07;1.60;;;20.30;53.40;;;;;;4477025;32;20069;-82
2022/05/15 03:01:16;;;;;;;4.30;2.00;;;20.30;53.40;;;;;;4476954;31;20461;-82
2022/05/15 03:03:43;;;;;;;3.05;1.60;;;20.30;53.40;;;;;;4476586;31;20152;-83
2022/05/15 03:06:09;;;;;;;3.80;1.63;;;20.30;53.40;;;;;;4476767;31;20219;-82
2022/05/15 03:08:42;;;;;;;4.28;1.85;;;20.30;53.50;;;;;;4476758;32;20074;-82
2022/05/15 03:11:09;;;;;;;4.68;2.20;;;20.30;53.40;;;;;;4476769;31;20529;-82
2022/05/15 03:13:35;;;;;;;3.78;1.67;;;20.30;53.40;;;;;;4476788;32;20517;-82
2022/05/15 03:16:02;;;;;;;3.85;1.70;;;20.30;53.50;;;;;;4476725;31;20220;-82
2022/05/15 03:18:28;;;;;;;4.15;1.70;;;20.30;53.50;;;;;;4476774;31;20507;-82
2022/05/15 03:20:54;;;;;;;3.13;1.55;;;20.30;53.50;;;;;;4476351;32;20461;-83
2022/05/15 03:23:20;;;;;;;3.08;1.77;;;20.20;53.40;;;;;;4476578;32;20070;-83
2022/05/15 03:25:46;;;;;;;2.67;1.27;;;20.20;53.40;;;;;;4476573;32;20090;-83
2022/05/15 03:28:13;;;;;;;4.30;1.75;;;20.20;53.40;;;;;;4476281;31;20093;-82
2022/05/15 03:30:40;;;;;;;3.58;1.52;;;20.20;53.50;;;;;;4476335;32;20096;-83
2022/05/15 03:33:08;;;;;;;3.67;1.80;;;20.20;53.40;;;;;;4476833;31;20752;-82
2022/05/15 03:35:34;;;;;;;3.95;1.85;;;20.20;53.40;;;;;;4476495;32;20074;-83
2022/05/15 03:38:01;;;;;;;3.78;1.58;;;20.20;53.40;;;;;;4475354;32;20085;-83
2022/05/15 03:40:27;;;;;;;3.90;1.52;;;20.20;53.40;;;;;;4476350;32;20643;-83
2022/05/15 03:42:53;;;;;;;3.50;1.40;;;20.20;53.40;;;;;;4476396;32;20069;-83
2022/05/15 03:45:19;;;;;;;3.95;1.75;;;20.20;53.40;;;;;;4476057;32;20105;-83
2022/05/15 03:47:50;;;;;;;3.40;1.52;;;20.20;53.40;;;;;;4475310;32;20085;-82
2022/05/15 03:50:17;;;;;;;3.05;1.23;;;20.20;53.40;;;;;;4476668;32;20109;-83
2022/05/15 03:52:44;;;;;;;4.75;1.70;;;20.10;53.40;;;;;;4476632;32;20078;-83
2022/05/15 03:55:12;;;;;;;2.90;1.60;;;20.10;53.40;;;;;;4476403;32;20077;-81
2022/05/15 03:57:39;;;;;;;3.90;1.65;;;20.20;53.40;;;;;;4476003;32;20105;-83
2022/05/15 04:00:07;;;;;;;2.67;1.35;;;20.10;54.30;;;;;;4476419;32;20087;-81
2022/05/15 04:02:33;;;;;;;4.10;1.52;;;20.10;53.40;;;;;;4475229;32;20134;-82
2022/05/15 04:04:59;;;;;;;2.88;1.50;;;20.10;53.40;;;;;;4476318;32;20476;-83
2022/05/15 04:07:25;;;;;;;5.20;1.65;;;20.10;53.40;;;;;;4476304;32;20078;-83
2022/05/15 04:09:51;;;;;;;3.08;1.70;;;20.10;53.30;;;;;;4476422;32;20486;-83
2022/05/15 04:12:16;;;;;;;3.72;1.65;;;20.10;53.40;;;;;;4476204;32;20109;-83
2022/05/15 04:14:43;;;;;;;2.10;1.17;;;20.10;53.40;;;;;;4476475;32;20151;-83
2022/05/15 04:17:08;;;;;;;3.42;1.60;;;20.10;53.40;;;;;;4476411;32;20286;-83
2022/05/15 04:19:36;;;;;;;2.53;1.40;;;20.10;53.40;;;;;;4475887;32;20406;-83
2022/05/15 04:22:04;;;;;;;2.92;1.60;;;20.10;53.40;;;;;;4476039;32;20085;-83
2022/05/15 04:24:33;;;;;;;2.40;1.20;;;20.10;53.40;;;;;;4476473;32;20077;-83
2022/05/15 04:27:00;;;;;;;3.25;1.63;;;20.10;54.30;;;;;;4476186;32;20223;-83
2022/05/15 04:29:27;;;;;;;3.15;1.50;;;20.00;53.30;;;;;;4476064;32;20140;-82
2022/05/15 04:31:55;;;;;;;2.83;1.42;;;20.00;53.30;;;;;;4476370;32;20087;-83
2022/05/15 04:34:28;;;;;;;2.80;1.58;;;20.00;53.30;;;;;;4476105;32;20223;-82
2022/05/15 04:36:55;;;;;;;2.58;1.42;;;20.00;53.30;;;;;;4476068;32;20069;-83
2022/05/15 04:39:22;;;;;;;2.70;1.33;;;20.00;53.40;;;;;;4475696;32;20096;-83
2022/05/15 04:41:48;;;;;;;3.35;1.42;;;20.00;53.30;;;;;;4475932;32;20093;-83
2022/05/15 04:44:14;;;;;;;2.53;1.23;;;20.00;53.40;;;;;;4475539;32;20070;-82
2022/05/15 04:46:40;;;;;;;2.75;1.20;;;20.00;53.40;;;;;;4475944;32;20096;-83
2022/05/15 04:49:06;;;;;;;2.33;1.30;;;20.00;53.40;;;;;;4475959;32;20065;-82
2022/05/15 04:51:32;;;;;;;2.70;1.27;;;20.00;53.40;;;;;;4475187;32;20066;-83
2022/05/15 04:53:58;;;;;;;2.63;1.40;;;20.00;53.40;;;;;;4476178;32;20501;-82
2022/05/15 04:56:24;;;;;;;1.80;1.20;;;20.00;53.40;;;;;;4476618;32;20268;-82
2022/05/15 04:58:51;;;;;;;4.18;1.38;;;20.00;53.40;;;;;;4478693;32;20102;-82
2022/05/15 05:01:18;;;;;;;3.03;1.17;;;20.00;53.30;;;;;;4478671;31;20097;-82
2022/05/15 05:03:44;;;;;;;2.67;1.50;;;20.00;53.40;;;;;;4478629;32;20506;-82
2022/05/15 05:06:11;;;;;;;2.15;1.20;;;20.00;53.40;;;;;;4478651;31;20092;-82
2022/05/15 05:08:37;;;;;;;3.13;1.27;;;20.00;53.40;;;;;;4478266;31;20561;-82
2022/05/15 05:11:03;;;;;;;2.55;1.10;;;20.00;53.40;;;;;;4478542;31;20155;-81
2022/05/15 05:13:29;;;;;;;3.33;1.50;;;20.00;53.40;;;;;;4478436;31;20062;-82
2022/05/15 05:15:55;;;;;;;2.80;1.40;;;20.00;53.30;;;;;;4478510;31;20073;-82
2022/05/15 05:18:21;;;;;;;2.08;1.27;;;20.00;53.30;;;;;;4478472;32;20069;-82
2022/05/15 05:20:47;;;;;;;2.97;1.30;;;20.00;53.30;;;;;;4478355;31;20113;-82
2022/05/15 05:23:13;;;;;;;1.60;1.00;;;20.00;53.30;;;;;;4478152;31;20218;-82
2022/05/15 05:25:39;;;;;;;2.47;1.10;;;20.00;53.30;;;;;;4478339;31;20085;-80
2022/05/15 05:28:05;;;;;;;1.98;1.05;;;20.00;53.30;;;;;;4478352;32;20133;-80
2022/05/15 05:30:32;;;;;;;1.88;1.00;;;20.00;53.30;;;;;;4478310;31;20089;-81
2022/05/15 05:32:58;;;;;;;2.40;1.45;;;20.00;53.30;;;;;;4478237;31;20084;-82
2022/05/15 05:35:26;;;;;;;2.80;1.17;;;20.00;53.30;;;;;;4478133;31;20058;-82
2022/05/15 05:37:52;;;;;;;2.65;1.20;;;20.00;53.40;;;;;;4478184;31;20178;-81
2022/05/15 05:40:19;;;;;;;1.88;1.20;;;20.00;53.30;;;;;;4478060;31;20062;-81
2022/05/15 05:42:45;;;;;;;2.42;1.40;;;20.00;54.30;;;;;;4478023;31;20074;-81
2022/05/15 05:45:11;;;;;;;3.00;1.27;;;20.00;53.30;;;;;;4478134;31;20367;-81
2022/05/15 05:47:37;;;;;;;2.88;1.05;;;20.00;53.40;;;;;;4478049;31;20168;-81
2022/05/15 05:50:08;;;;;;;2.20;1.30;;;20.00;53.30;;;;;;4477919;32;20091;-81
2022/05/15 05:52:39;;;;;;;2.30;1.13;;;20.00;53.30;;;;;;4478286;31;20077;-81
2022/05/15 05:55:07;;;;;;;2.80;1.48;;;20.00;53.30;;;;;;4478015;31;20074;-81
2022/05/15 05:57:33;;;;;;;2.95;1.27;;;20.00;53.30;;;;;;4476874;32;20089;-80
2022/05/15 05:59:58;;;;;;;2.08;1.25;;;20.10;53.40;;;;;;4476726;32;20065;-81
2022/05/15 06:02:25;;;;;;;3.22;1.50;;;20.10;53.30;;;;;;4476329;32;20538;-81
2022/05/15 06:04:52;;;;;;;2.20;1.15;;;20.10;53.40;;;;;;4477430;31;20089;-81
2022/05/15 06:07:21;;;;;;;2.13;1.20;;;20.10;53.40;;;;;;4477561;31;20160;-80
2022/05/15 06:09:49;;;;;;;2.42;1.27;;;20.10;54.30;;;;;;4477592;31;20413;-79
2022/05/15 06:12:17;;;;;;;2.55;1.20;;;20.10;53.40;;;;;;4477493;32;20088;-81
2022/05/15 06:14:43;;;;;;;2.90;1.35;;;20.10;53.30;;;;;;4477502;31;20074;-81
2022/05/15 06:17:09;;;;;;;2.60;1.10;;;20.10;53.30;;;;;;4477764;32;20633;-80
2022/05/15 06:19:37;;;;;;;2.75;1.52;;;20.10;53.30;;;;;;4477265;31;20203;-80
2022/05/15 06:22:04;;;;;;;2.85;1.10;;;20.10;53.30;;;;;;4477070;31;20089;-81
2022/05/15 06:24:30;;;;;;;2.15;1.20;;;20.10;53.30;;;;;;4477452;31;20104;-81
2022/05/15 06:27:02;;;;;;;2.60;1.10;;;20.10;53.30;;;;;;4477363;32;20069;-81
2022/05/15 06:29:29;;;;;;;2.35;1.23;;;20.20;53.30;;;;;;4477633;31;20128;-80
2022/05/15 06:31:56;;;;;;;2.33;1.20;;;20.20;53.30;;;;;;4477571;31;20187;-81
2022/05/15 06:34:22;;;;;;;2.03;1.27;;;20.20;53.30;;;;;;4477262;31;20069;-80
2022/05/15 06:36:48;;;;;;;2.50;1.38;;;20.20;53.30;;;;;;4477242;31;20158;-80
2022/05/15 06:39:14;;;;;;;2.85;1.30;;;20.20;54.20;;;;;;4476873;31;20088;-80
2022/05/15 06:41:40;;;;;;;2.08;0.93;;;20.20;53.30;;;;;;4477206;32;20093;-81
2022/05/15 06:44:07;;;;;;;2.38;1.08;;;20.20;53.30;;;;;;4476586;31;20069;-77
2022/05/15 06:46:33;;;;;;;2.05;1.15;;;20.20;53.30;;;;;;4477225;32;20135;-80
2022/05/15 06:48:59;;;;;;;2.65;1.40;;;20.20;53.30;;;;;;4477190;31;20069;-80
2022/05/15 06:51:26;;;;;;;2.20;1.05;;;20.30;53.40;;;;;;4477239;32;20481;-80
2022/05/15 06:53:53;;;;;;;2.90;1.50;;;20.30;53.40;;;;;;4476915;32;20191;-79
2022/05/15 06:59:03;;;;;;;2.17;1.52;;;20.30;53.40;;;;;;4477314;32;20596;-80
2022/05/15 07:01:31;;;;;;;4.07;1.50;;;20.30;53.40;;;;;;4476800;31;20069;-79
2022/05/15 07:03:57;;;;;;;3.70;1.35;;;20.30;53.40;;;;;;4477043;31;20495;-81
2022/05/15 07:06:23;;;;;;;3.20;1.42;;;20.30;53.40;;;;;;4476584;31;20208;-80
2022/05/15 07:08:49;;;;;;;2.65;1.30;;;20.40;53.50;;;;;;4476990;32;20073;-78
2022/05/15 07:11:16;;;;;;;2.80;1.50;;;20.40;54.40;;;;;;4476797;31;20086;-74
2022/05/15 07:13:42;;;;;;;2.90;1.60;;;20.40;53.50;;;;;;4476561;31;20191;-72
2022/05/15 07:16:11;;;;;;;4.55;1.75;;;20.40;54.50;;;;;;4476558;31;20163;-72
2022/05/15 07:18:38;;;;;;;4.38;1.70;;;20.50;53.80;;;;;;4476189;31;20130;-72
2022/05/15 07:21:04;;;;;;;2.65;1.50;;;20.50;53.80;;;;;;4476132;32;20184;-72
2022/05/15 07:23:30;;;;;;;3.78;1.60;;;20.60;53.70;;;;;;4476551;32;20644;-73
2022/05/15 07:25:57;;;;;;;5.43;1.50;;;20.70;53.80;;;;;;4476457;31;20082;-72
2022/05/15 07:28:23;;;;;;;4.55;1.95;;;20.70;53.90;;;;;;4476388;32;20092;-72
2022/05/15 07:30:50;;;;;;;5.63;2.00;;;20.80;54.20;;;;;;4476550;32;20082;-72
2022/05/15 07:33:26;;;;;;;9.30;2.22;;;20.80;54.20;;;;;;4476394;32;20460;-72
2022/05/15 07:35:53;;;;;;;8.07;2.00;;;20.80;54.20;;;;;;4476589;32;20073;-72
2022/05/15 07:38:19;;;;;;;6.45;2.08;;;20.90;54.00;;;;;;4476464;32;20498;-72
2022/05/15 07:40:45;;;;;;;4.78;2.00;;;20.90;54.00;;;;;;4476201;32;20066;-72
2022/05/15 07:43:12;;;;;;;8.15;2.50;;;20.90;53.80;;;;;;4474801;32;20163;-71
2022/05/15 07:45:38;;;;;;;8.82;2.20;;;20.90;53.80;;;;;;4476293;32;20120;-72
2022/05/15 07:48:04;;;;;;;7.38;2.35;;;21.00;53.60;;;;;;4476283;32;20223;-72
2022/05/15 07:50:30;;;;;;;10.25;3.17;;;21.00;53.40;;;;;;4476007;32;20073;-72
2022/05/15 07:52:56;;;;;;;10.00;3.33;;;21.00;53.20;;;;;;4475960;32;20407;-72
2022/05/15 07:55:22;;;;;;;7.88;2.67;;;21.10;53.00;;;;;;4476180;32;20092;-71
2022/05/15 07:57:49;;;;;;;9.45;2.85;;;21.10;52.80;;;;;;4474859;32;20113;-71
2022/05/15 08:00:16;;;;;;;12.23;2.97;;;21.10;52.70;;;;;;4474896;32;20081;-72
2022/05/15 08:02:44;;;;;;;10.43;2.90;;;21.10;52.40;;;;;;4476307;32;20089;-72
2022/05/15 08:08:09;;;;;;;7.53;2.42;;;21.10;52.00;;;;;;4476152;32;20388;-72
2022/05/15 08:10:38;;;;;;;12.50;3.22;;;21.10;51.90;;;;;;4476189;32;20080;-72
2022/05/15 08:13:05;;;;;;;9.75;2.95;;;21.20;51.90;;;;;;4475684;32;20166;-72
2022/05/15 08:15:33;;;;;;;14.23;3.40;;;21.20;51.70;;;;;;4476130;32;20223;-72
2022/05/15 08:23:36;;;;;;;9.75;2.58;;;21.20;50.90;;;;;;4476000;32;20158;-72
2022/05/15 08:26:06;;;;;;;;;;;21.30;50.70;;;;;;4476859;32;20085;-71
2022/05/15 08:28:33;;;;;;;9.98;2.40;;;21.30;50.60;;;;;;4475729;32;19965;-71
2022/05/15 08:31:00;;;;;;;10.40;2.75;;;21.30;50.70;;;;;;4477523;32;20092;-71
2022/05/15 08:33:26;;;;;;;9.18;3.03;;;21.30;50.60;;;;;;4479084;31;20250;-71
2022/05/15 08:35:53;;;;;;;9.38;2.47;;;21.30;50.30;;;;;;4479020;32;20057;-71
2022/05/15 08:38:20;;;;;;;9.13;2.40;;;21.30;49.90;;;;;;4478674;31;20092;-71
2022/05/15 08:40:53;;;;;;;8.57;2.75;;;21.30;49.70;;;;;;4478788;32;20077;-71
2022/05/15 08:43:26;;;;;;;7.45;2.63;;;21.30;49.60;;;;;;4478479;32;20065;-71
2022/05/15 08:46:03;;;;;;;9.70;2.55;;;21.30;49.30;;;;;;4478883;31;20089;-72
2022/05/15 08:48:33;;;;;;;6.18;2.30;;;21.30;49.20;;;;;;4479076;31;20178;-72
2022/05/15 08:51:01;;;;;;;7.13;2.20;;;21.30;50.00;;;;;;4478743;32;20100;-72
2022/05/15 08:53:35;;;;;;;5.22;1.70;;;21.40;49.00;;;;;;4478708;31;20092;-71
2022/05/15 08:56:09;;;;;;;8.35;1.95;;;21.40;49.10;;;;;;4478364;32;20077;-71
2022/05/15 08:58:37;;;;;;;7.75;2.58;;;21.40;48.90;;;;;;4478990;32;20096;-71
2022/05/15 09:01:08;;;;;;;8.13;2.15;;;21.40;48.60;;;;;;4478450;31;20227;-71
2022/05/15 09:03:37;;;;;;;6.70;1.90;;;21.40;48.50;;;;;;4478783;31;20088;-72
2022/05/15 09:06:25;;;;;;;4.95;1.90;;;21.40;48.60;;;;;;4478551;31;20065;-72
2022/05/15 09:09:18;;;;;;;5.95;1.63;;;21.40;48.40;;;;;;4478642;31;20491;-71
2022/05/15 09:11:52;;;;;;;8.43;1.88;;;21.50;48.10;;;;;;4478567;32;20183;-71
2022/05/15 09:14:34;;;;;;;7.47;2.00;;;21.50;48.40;;;;;;4478575;31;20530;-71
2022/05/15 09:17:12;;;;;;;8.15;1.95;;;21.50;48.00;;;;;;4478358;31;20527;-72
2022/05/15 09:19:38;;;;;;;7.32;2.53;;;21.50;47.80;;;;;;4478422;31;20231;-71
2022/05/15 09:22:05;;;;;;;6.75;1.80;;;21.50;47.80;;;;;;4478193;31;20394;-72
2022/05/15 09:24:45;;;;;;;8.40;2.30;;;21.50;47.50;;;;;;4478202;32;20077;-72
2022/05/15 09:27:23;;;;;;;4.50;1.42;;;21.50;47.50;;;;;;4478383;31;20116;-71
2022/05/15 09:30:01;;;;;;;3.05;1.05;;;21.50;47.20;;;;;;4477778;32;20641;-72
2022/05/15 09:32:42;;;;;;;5.60;1.60;;;21.50;46.80;;;;;;4477677;32;20083;-72
2022/05/15 09:35:35;;;;;;;4.80;1.83;;;21.60;46.70;;;;;;4477898;31;20158;-72
2022/05/15 09:43:37;;;;;;;5.90;2.15;;;21.60;46.50;;;;;;4477499;32;20084;-70
2022/05/15 09:46:25;;;;;;;5.65;1.88;;;21.60;46.30;;;;;;4477713;31;20087;-71
2022/05/15 09:49:21;;;;;;;5.38;1.80;;;21.70;46.00;;;;;;4477979;31;20104;-71
2022/05/15 09:51:50;;;;;;;4.97;1.50;;;21.70;46.10;;;;;;4475474;32;20618;-72
2022/05/15 09:54:34;;;;;;;5.78;1.95;;;21.70;46.20;;;;;;4476632;32;20073;-71
2022/05/15 09:57:12;;;;;;;7.47;1.80;;;21.70;46.10;;;;;;4477102;32;20139;-71
2022/05/15 09:59:38;;;;;;;5.20;1.70;;;21.70;45.90;;;;;;4476456;32;20113;-70
2022/05/15 10:02:05;;;;;;;7.75;1.90;;;21.80;45.90;;;;;;4477500;32;20104;-71
2022/05/15 10:04:38;;;;;;;9.88;2.78;;;21.80;45.90;;;;;;4477475;31;20081;-71
2022/05/15 10:07:06;;;;;;;6.88;1.75;;;21.80;45.70;;;;;;4477433;31;20074;-71
2022/05/15 10:09:36;;;;;;;10.85;2.20;;;21.80;45.60;;;;;;4477524;31;20096;-71
2022/05/15 10:12:07;;;;;;;5.80;1.98;;;21.80;45.60;;;;;;4477432;32;20129;-70
2022/05/15 10:14:47;;;;;;;9.65;2.45;;;21.80;46.40;;;;;;4477706;31;20081;-71
2022/05/15 10:17:15;;;;;;;6.53;1.77;;;21.80;45.40;;;;;;4477700;32;20112;-71
2022/05/15 10:19:43;;;;;;;5.00;1.58;;;21.80;45.50;;;;;;4477349;31;20395;-70
2022/05/15 10:22:25;;;;;;;6.28;1.75;;;21.80;45.20;;;;;;4477196;32;20065;-71
2022/05/15 10:24:51;;;;;;;9.20;2.08;;;21.90;45.10;;;;;;4477624;31;20200;-70
2022/05/15 10:27:26;;;;;;;4.60;1.85;;;21.90;44.80;;;;;;4477271;31;20085;-70
2022/05/15 10:30:02;;;;;;;8.43;1.90;;;21.90;44.80;;;;;;4477473;31;20081;-72
2022/05/15 10:32:41;;;;;;;7.85;2.53;;;21.90;44.60;;;;;;4477132;31;20239;-71
2022/05/15 10:35:14;;;;;;;5.80;2.10;;;21.90;44.50;;;;;;4475920;32;20073;-71
2022/05/15 10:38:17;;;;;;;5.15;1.70;;;22.00;44.50;;;;;;4477213;31;20089;-71
2022/05/15 10:40:57;;;;;;;8.20;2.15;;;21.90;44.40;;;;;;4477134;31;20438;-70
2022/05/15 10:43:42;;;;;;;8.82;2.13;;;21.90;44.70;;;;;;4477526;32;20081;-70
2022/05/15 10:46:19;;;;;;;6.15;1.80;;;21.90;44.70;;;;;;4476655;31;20581;-70
2022/05/15 10:49:19;;;;;;;10.45;2.38;;;21.90;44.80;;;;;;4475951;32;20112;-69
2022/05/15 10:52:01;;;;;;;8.70;2.33;;;21.90;44.80;;;;;;4476912;31;20414;-70
2022/05/15 10:58:14;;;;;;;7.40;2.00;;;22.00;45.00;;;;;;4469912;31;20069;-70
2022/05/15 11:01:07;;;;;;;10.43;2.47;;;22.00;44.90;;;;;;4458859;32;20104;-76
2022/05/15 11:03:54;;;;;;;8.35;2.40;;;21.90;44.60;;;;;;4459167;32;20085;-76
2022/05/15 11:06:39;;;;;;;9.55;2.63;;;21.90;45.30;;;;;;4472934;31;20096;-77
2022/05/15 11:09:10;;;;;;;7.18;2.55;;;21.80;45.40;;;;;;4476959;31;20096;-76
2022/05/15 11:11:47;;;;;;;13.07;2.42;;;21.80;46.60;;;;;;4476670;31;20078;-76
2022/05/15 11:14:31;;;;;;;9.35;2.47;;;21.70;45.80;;;;;;4476905;31;20524;-68
2022/05/15 11:17:40;;;;;;;8.27;2.63;;;21.70;46.20;;;;;;4476922;31;20069;-67
2022/05/15 11:20:16;;;;;;;10.13;2.00;;;21.70;46.50;;;;;;4476615;32;20506;-76
2022/05/15 11:22:48;;;;;;;10.60;2.35;;;21.60;46.70;;;;;;4476692;31;20406;-77
2022/05/15 11:25:39;;;;;;;7.40;1.88;;;21.60;47.00;;;;;;4476367;32;20143;-76
2022/05/15 11:28:12;;;;;;;6.72;1.88;;;21.60;47.20;;;;;;4476695;31;20495;-76
2022/05/15 11:30:42;;;;;;;9.13;2.33;;;21.60;47.40;;;;;;4476959;31;20198;-76
2022/05/15 11:33:29;;;;;;;5.80;2.17;;;21.50;47.50;;;;;;4476469;31;20092;-76
2022/05/15 11:36:29;;;;;;;7.60;2.17;;;21.50;47.60;;;;;;4475160;32;20096;-76
2022/05/15 11:39:05;;;;;;;7.57;2.33;;;21.50;47.80;;;;;;4476504;31;20091;-76
2022/05/15 11:41:40;;;;;;;7.82;1.77;;;21.50;47.90;;;;;;4475459;32;20088;-76
2022/05/15 11:44:18;;;;;;;8.88;2.33;;;21.50;48.00;;;;;;4476302;32;20160;-76
2022/05/15 11:46:47;;;;;;;6.55;2.20;;;21.50;48.10;;;;;;4475524;32;20073;-76
2022/05/15 11:49:39;;;;;;;6.65;1.90;;;21.50;48.30;;;;;;4476439;32;20661;-76
2022/05/15 11:52:08;;;;;;;7.18;1.95;;;21.50;48.40;;;;;;4476461;32;20074;-76
2022/05/15 11:54:37;;;;;;;6.82;2.50;;;21.50;48.40;;;;;;4476589;32;20085;-76
2022/05/15 11:57:07;;;;;;;8.20;2.30;;;21.50;48.50;;;;;;4476038;32;20219;-76
2022/05/15 11:59:52;;;;;;;6.38;1.75;;;21.50;48.60;;;;;;4476274;32;20415;-76
2022/05/15 12:02:20;;;;;;;7.40;1.83;;;21.50;48.70;;;;;;4476635;32;20081;-75
2022/05/15 12:04:46;;;;;;;8.32;2.05;;;21.50;48.80;;;;;;4476587;32;20395;-76
2022/05/15 12:07:15;;;;;;;5.93;2.08;;;21.50;48.90;;;;;;4479342;31;20084;-76
2022/05/15 12:09:41;;;;;;;5.15;1.98;;;21.40;48.90;;;;;;4479243;31;20113;-76
2022/05/15 12:12:27;;;;;;;5.50;1.80;;;21.50;49.00;;;;;;4479429;31;20076;-76
2022/05/15 12:15:10;;;;;;;5.10;1.80;;;21.50;49.10;;;;;;4479614;31;20403;-76
2022/05/15 12:17:52;;;;;;;5.13;2.20;;;21.50;49.20;;;;;;4479428;31;20117;-76
2022/05/15 12:20:28;;;;;;;7.22;1.83;;;21.50;49.10;;;;;;4479448;31;20073;-76
2022/05/15 12:22:59;;;;;;;6.47;1.95;;;21.40;49.20;;;;;;4479254;32;20526;-76
2022/05/15 12:25:36;;;;;;;4.70;1.65;;;21.40;49.20;;;;;;4479363;31;20244;-77
2022/05/15 12:31:06;;;;;;;7.88;2.10;;;21.40;49.40;;;;;;4479207;32;20072;-77
2022/05/15 12:33:34;;;;;;;5.25;1.90;;;21.50;49.60;;;;;;4479106;31;20419;-76
2022/05/15 12:36:00;;;;;;;6.50;2.00;;;21.40;49.50;;;;;;4479016;31;20081;-76
2022/05/15 12:38:27;;;;;;;4.57;2.00;;;21.40;49.60;;;;;;4478726;31;20074;-76
2022/05/15 12:40:59;;;;;;;6.43;1.98;;;21.50;49.70;;;;;;4478691;32;20100;-76
2022/05/15 12:43:29;;;;;;;5.25;1.85;;;21.50;49.70;;;;;;4478979;31;20235;-76
2022/05/15 12:45:55;;;;;;;5.30;1.63;;;21.50;49.70;;;;;;4478506;31;20077;-76
2022/05/15 12:48:22;;;;;;;3.60;1.40;;;21.50;49.70;;;;;;4478927;32;20235;-76
2022/05/15 12:50:50;;;;;;;5.97;1.83;;;21.50;49.70;;;;;;4478666;31;20148;-76
2022/05/15 12:53:24;;;;;;;5.38;1.63;;;21.50;49.80;;;;;;4478855;31;20641;-76
2022/05/15 12:55:51;;;;;;;5.47;1.58;;;21.50;49.80;;;;;;4479158;32;20120;-76
2022/05/15 12:58:30;;;;;;;5.55;1.90;;;21.50;49.80;;;;;;4478996;32;20158;-76
2022/05/15 13:00:56;;;;;;;5.22;2.08;;;21.50;49.90;;;;;;4479056;32;20637;-76
2022/05/15 13:03:22;;;;;;;6.28;1.85;;;21.50;49.90;;;;;;4478786;31;20069;-76
2022/05/15 13:05:48;;;;;;;3.85;1.63;;;21.50;49.90;;;;;;4478707;31;20085;-77
2022/05/15 13:08:14;;;;;;;5.25;1.75;;;21.50;49.90;;;;;;4478721;31;20078;-76
2022/05/15 13:10:54;;;;;;;6.43;2.05;;;21.50;49.90;;;;;;4478882;31;20078;-76
2022/05/15 13:13:38;;;;;;;6.32;1.85;;;21.60;50.00;;;;;;4478299;31;20082;-76
2022/05/15 13:16:06;;;;;;;6.85;1.90;;;21.60;50.10;;;;;;4478766;31;20089;-76
2022/05/15 13:18:35;;;;;;;5.70;1.50;;;21.60;50.00;;;;;;4477454;32;20097;-75
2022/05/15 13:21:05;;;;;;;7.18;1.98;;;21.60;50.10;;;;;;4478335;32;20073;-76
2022/05/15 13:23:48;;;;;;;6.82;2.17;;;21.60;50.10;;;;;;4478734;31;20092;-76
2022/05/15 13:26:25;;;;;;;4.15;1.63;;;21.60;50.10;;;;;;4478674;31;20170;-76
2022/05/15 13:28:52;;;;;;;4.35;1.40;;;21.60;50.10;;;;;;4464194;32;20088;-76